Time;durP1;ratioP1;P1;durP2;ratioP2;P2;SDS_P1;SDS_P2;PMS_P1;PMS_P2;Temp;Humidity;BMP_temperature;BMP_pressure;BME280_temperature;BME280_humidity;BME280_pressure;Samples;Min_cycle;Max_cycle;Signal;HPM_P1;HPM_P2
2023/07/18 00:00:30;;;;;;;;;0.67;0.00;;;;;28.56;35.07;102047.22;5097823;27;45387;-86
2023/07/18 00:02:55;;;;;;;;;1.33;0.00;;;;;28.63;35.26;102058.81;5097023;27;45279;-85
2023/07/18 00:05:21;;;;;;;;;1.00;1.00;;;;;28.63;35.27;102058.81;5096680;27;47066;-86
2023/07/18 00:07:47;;;;;;;;;1.67;0.33;;;;;28.49;34.89;102035.66;5095964;27;45311;-86
2023/07/18 00:10:12;;;;;;;;;1.33;0.00;;;;;28.51;34.96;102036.28;5097314;27;45304;-87
2023/07/18 00:12:39;;;;;;;;;0.00;0.00;;;;;28.52;35.37;102038.75;5097424;27;45215;-86
2023/07/18 00:15:06;;;;;;;;;0.00;0.00;;;;;28.65;35.25;102058.59;5096735;27;46505;-86
2023/07/18 00:17:33;;;;;;;;;1.00;0.67;;;;;28.48;35.00;102036.66;5096960;27;45436;-86
2023/07/18 00:20:04;;;;;;;;;0.00;0.00;;;;;28.65;35.18;102055.09;5096797;27;45329;-86
2023/07/18 00:22:30;;;;;;;;;2.67;1.00;;;;;28.61;34.88;102047.47;5096848;27;45366;-85
2023/07/18 00:24:55;;;;;;;;;0.00;0.00;;;;;28.65;35.11;102053.25;5097257;27;45669;-85
2023/07/18 00:27:20;;;;;;;;;1.00;1.00;;;;;28.63;35.10;102048.09;5096816;27;45429;-86
2023/07/18 00:29:46;;;;;;;;;0.00;0.00;;;;;28.48;35.22;102020.59;5096783;27;45322;-86
2023/07/18 00:32:11;;;;;;;;;1.00;0.00;;;;;28.62;35.49;102049.09;5097189;27;45439;-86
2023/07/18 00:34:36;;;;;;;;;0.00;0.00;;;;;28.37;35.18;102011.22;5096965;27;45365;-86
2023/07/18 00:37:03;;;;;;;;;0.00;0.00;;;;;28.61;35.11;102041.28;5096577;27;45275;-86
2023/07/18 00:39:28;;;;;;;;;1.00;1.00;;;;;28.49;35.43;102023.09;5097203;27;45475;-86
2023/07/18 00:41:53;;;;;;;;;0.33;0.33;;;;;28.61;34.85;102034.06;5096497;27;45338;-86
2023/07/18 00:44:19;;;;;;;;;1.33;0.00;;;;;28.62;35.41;102042.94;5096200;27;46285;-86
2023/07/18 00:46:45;;;;;;;;;1.00;1.00;;;;;28.37;34.96;101996.00;5096203;27;45484;-85
2023/07/18 00:49:11;;;;;;;;;2.00;0.00;;;;;28.49;35.40;102011.56;5097524;27;45317;-86
2023/07/18 00:51:36;;;;;;;;;1.00;1.00;;;;;28.45;35.38;101996.91;5096356;27;45405;-86
2023/07/18 00:54:02;;;;;;;;;2.33;0.33;;;;;28.42;35.27;101994.59;5096194;27;45983;-86
2023/07/18 00:56:28;;;;;;;;;0.67;0.67;;;;;28.47;35.21;102002.91;5096522;27;45330;-86
2023/07/18 00:58:54;;;;;;;;;0.33;0.33;;;;;28.48;35.29;102009.91;5096645;27;45393;-87
2023/07/18 01:01:20;;;;;;;;;0.00;0.00;;;;;28.64;35.20;102035.53;5096569;27;45267;-86
2023/07/18 01:03:45;;;;;;;;;2.00;0.00;;;;;28.55;35.31;102016.13;5096775;27;45364;-86
2023/07/18 01:06:11;;;;;;;;;0.00;0.00;;;;;28.63;35.18;102021.31;5096602;27;45386;-87
2023/07/18 01:08:39;;;;;;;;;1.00;1.00;;;;;28.65;35.34;102022.97;5097056;27;45424;-87
2023/07/18 01:11:05;;;;;;;;;1.00;0.00;;;;;28.38;35.19;101986.13;5096514;27;45511;-86
2023/07/18 01:13:30;;;;;;;;;0.00;0.00;;;;;28.36;35.46;101978.31;5096658;27;46450;-86
2023/07/18 01:15:56;;;;;;;;;0.00;0.00;;;;;28.63;34.86;102021.31;5096443;27;45359;-86
2023/07/18 01:18:21;;;;;;;;;0.00;0.00;;;;;28.62;35.05;102016.97;5096266;27;45348;-87
2023/07/18 01:20:48;;;;;;;;;0.00;0.00;;;;;28.47;34.94;101995.69;5100838;27;45418;-86
2023/07/18 01:23:14;;;;;;;;;0.33;0.33;;;;;28.61;34.97;102018.00;5099380;27;46835;-85
2023/07/18 01:25:40;;;;;;;;;1.00;1.00;;;;;28.62;35.51;102014.28;5099734;27;45274;-85
2023/07/18 01:28:06;;;;;;;;;0.00;0.00;;;;;28.53;35.19;101999.44;5099325;27;45307;-86
2023/07/18 01:30:31;;;;;;;;;0.00;0.00;;;;;28.60;35.37;102008.31;5099352;27;45292;-86
2023/07/18 01:32:57;;;;;;;;;2.00;1.00;;;;;28.39;35.40;101967.19;5099103;27;46237;-85
2023/07/18 01:35:25;;;;;;;;;1.00;1.00;;;;;28.61;35.07;102007.31;5099450;27;45556;-86
2023/07/18 01:37:51;;;;;;;;;1.00;1.00;;;;;28.61;35.48;102001.94;5099714;27;45394;-85
2023/07/18 01:40:20;;;;;;;;;0.67;0.67;;;;;28.60;35.21;101994.94;5099457;27;45322;-86
2023/07/18 01:42:51;;;;;;;;;0.00;0.00;;;;;28.52;35.38;101987.09;5098829;27;46477;-85
2023/07/18 01:45:24;;;;;;;;;1.00;1.00;;;;;28.61;35.41;101990.41;5099076;27;45400;-85
2023/07/18 01:47:51;;;;;;;;;1.00;1.00;;;;;28.56;35.69;101982.97;5099440;27;45418;-85
2023/07/18 01:50:17;;;;;;;;;0.00;0.00;;;;;28.60;35.92;101994.94;5098958;27;45304;-86
2023/07/18 01:52:43;;;;;;;;;1.00;1.00;;;;;28.49;35.49;101971.41;5117191;27;46372;-86
2023/07/18 01:55:12;;;;;;;;;1.33;1.00;;;;;28.61;35.56;101983.22;5119817;27;45368;-85
2023/07/18 01:57:43;;;;;;;;;0.00;0.00;;;;;28.61;35.23;101985.06;5119688;27;45282;-86
2023/07/18 02:00:11;;;;;;;;;0.00;0.00;;;;;28.57;35.23;101978.47;5120197;27;45425;-86
2023/07/18 02:02:39;;;;;;;;;0.33;0.33;;;;;28.57;35.21;101986.50;5118921;27;47843;-85
2023/07/18 02:05:05;;;;;;;;;1.67;1.00;;;;;28.60;35.36;101989.56;5119450;27;45287;-85
2023/07/18 02:07:31;;;;;;;;;0.00;0.00;;;;;28.61;35.63;101985.06;5119548;27;45337;-85
2023/07/18 02:09:57;;;;;;;;;1.00;1.00;;;;;28.52;35.58;101963.78;5119998;27;45475;-87
2023/07/18 02:12:22;;;;;;;;;0.00;0.00;;;;;28.61;35.22;101982.38;5119395;27;45468;-85
2023/07/18 02:14:48;;;;;;;;;1.33;0.00;;;;;28.49;35.80;101956.19;5119975;27;45263;-85
2023/07/18 02:17:13;;;;;;;;;0.00;0.00;;;;;28.52;35.81;101963.00;5119008;27;45676;-85
2023/07/18 02:19:38;;;;;;;;;0.00;0.00;;;;;28.45;35.62;101949.56;5119759;27;45348;-85
2023/07/18 02:22:05;;;;;;;;;0.33;0.33;;;;;28.60;35.90;101981.53;5119672;27;45382;-85
2023/07/18 02:24:31;;;;;;;;;0.33;0.00;;;;;28.39;35.32;101939.63;5121425;27;45352;-85
2023/07/18 02:26:58;;;;;;;;;2.00;1.00;;;;;28.56;35.84;101974.13;5121278;27;45358;-85
2023/07/18 02:29:23;;;;;;;;;0.00;0.00;;;;;28.59;35.50;101974.56;5120060;27;45503;-85
2023/07/18 02:31:49;;;;;;;;;0.00;0.00;;;;;28.50;35.38;101963.16;5121717;27;45370;-85
2023/07/18 02:34:14;;;;;;;;;0.67;0.00;;;;;28.56;35.11;101964.25;5122618;27;45435;-85
2023/07/18 02:36:39;;;;;;;;;0.00;0.00;;;;;27.74;35.36;101829.94;5119762;27;45283;-85
2023/07/18 02:39:07;;;;;;;;;1.33;1.00;;;;;28.59;35.45;101963.00;5119550;27;45271;-84
2023/07/18 02:41:34;;;;;;;;;0.00;0.00;;;;;28.60;35.52;101961.97;5118611;27;45457;-85
2023/07/18 02:43:59;;;;;;;;;0.00;0.00;;;;;28.56;35.51;101960.72;5118910;27;45323;-85
2023/07/18 02:46:25;;;;;;;;;0.00;0.00;;;;;28.58;35.71;101956.84;5118576;27;45279;-86
2023/07/18 02:48:50;;;;;;;;;3.00;0.00;;;;;28.57;35.49;101957.88;5099132;27;45486;-85
2023/07/18 02:51:16;;;;;;;;;0.00;0.00;;;;;28.53;36.06;101943.22;5098393;27;47302;-85
2023/07/18 02:53:41;;;;;;;;;1.00;1.00;;;;;28.57;35.29;101947.16;5098164;27;45523;-85
2023/07/18 02:56:06;;;;;;;;;0.00;0.00;;;;;28.58;35.77;101942.63;5098642;27;45404;-85
2023/07/18 02:58:32;;;;;;;;;0.00;0.00;;;;;28.57;35.39;101938.31;5098469;27;45412;-86
2023/07/18 03:00:59;;;;;;;;;0.33;0.33;;;;;28.54;35.36;101936.00;5098409;27;46931;-85
2023/07/18 03:03:26;;;;;;;;;0.00;0.00;;;;;28.33;35.75;101901.09;5098131;27;45303;-84
2023/07/18 03:05:53;;;;;;;;;0.00;0.00;;;;;28.37;35.42;101901.50;5097773;27;45356;-85
2023/07/18 03:08:18;;;;;;;;;1.00;1.00;;;;;28.48;35.52;101925.06;5097781;27;45226;-86
2023/07/18 03:10:44;;;;;;;;;0.67;0.00;;;;;28.52;35.55;101928.19;5097862;27;46331;-85
2023/07/18 03:13:09;;;;;;;;;1.00;1.00;;;;;28.45;35.56;101920.13;5097819;27;45330;-85
2023/07/18 03:15:34;;;;;;;;;2.00;0.00;;;;;28.58;35.42;101935.41;5098202;27;45461;-85
2023/07/18 03:18:00;;;;;;;;;0.00;0.00;;;;;28.58;35.28;101934.59;5097755;27;45422;-86
2023/07/18 03:20:27;;;;;;;;;1.00;1.00;;;;;28.47;35.51;101918.06;5098306;27;46054;-85
2023/07/18 03:22:52;;;;;;;;;0.33;0.33;;;;;28.33;35.33;101887.72;5097704;27;45412;-85
2023/07/18 03:25:18;;;;;;;;;0.00;0.00;;;;;28.58;35.82;101924.69;5097683;27;45413;-85
2023/07/18 03:27:44;;;;;;;;;1.00;1.00;;;;;28.58;35.45;101924.69;5098000;27;45327;-85
2023/07/18 03:30:11;;;;;;;;;3.67;0.00;;;;;28.57;35.51;101915.03;5097390;27;46450;-85
2023/07/18 03:32:38;;;;;;;;;0.00;0.00;;;;;28.58;35.23;101915.84;5098229;27;45278;-85
2023/07/18 03:35:07;;;;;;;;;2.00;0.00;;;;;28.58;35.45;101916.69;5098072;27;45377;-85
2023/07/18 03:37:33;;;;;;;;;0.00;0.00;;;;;28.26;35.73;101868.13;5098366;27;45357;-85
2023/07/18 03:39:59;;;;;;;;;0.00;0.00;;;;;28.58;35.56;101913.16;5097607;27;46042;-86
2023/07/18 03:42:24;;;;;;;;;1.00;1.00;;;;;28.57;35.90;101914.22;5096669;27;45345;-84
2023/07/18 03:44:49;;;;;;;;;1.00;1.00;;;;;28.54;35.44;101918.09;5097584;27;45395;-85
2023/07/18 03:47:15;;;;;;;;;0.00;0.00;;;;;28.48;35.40;101902.81;5097399;27;45268;-85
2023/07/18 03:49:40;;;;;;;;;0.00;0.00;;;;;28.15;35.86;101853.47;5097339;27;47238;-85
2023/07/18 03:52:06;;;;;;;;;0.00;0.00;;;;;28.55;35.49;101911.72;5097238;27;45364;-85
2023/07/18 03:54:33;;;;;;;;;0.67;0.67;;;;;28.55;35.31;101909.03;5097402;27;45392;-85
2023/07/18 03:56:59;;;;;;;;;1.00;1.00;;;;;28.55;36.03;101910.91;5097660;27;45429;-86
2023/07/18 03:59:25;;;;;;;;;0.00;0.00;;;;;28.31;36.00;101870.22;5112738;27;46642;-86
2023/07/18 04:01:51;;;;;;;;;1.00;1.00;;;;;28.51;35.51;101899.75;5097751;27;45404;-85
2023/07/18 04:04:16;;;;;;;;;1.00;1.00;;;;;28.27;36.05;101859.91;5097368;27;45420;-85
2023/07/18 04:06:43;;;;;;;;;0.00;0.00;;;;;28.54;35.87;101899.38;5097268;27;45303;-85
2023/07/18 04:09:09;;;;;;;;;2.00;0.33;;;;;28.54;35.28;101902.03;5096883;27;47207;-85
2023/07/18 04:11:34;;;;;;;;;0.00;0.00;;;;;28.44;35.58;101878.31;5096945;27;45354;-85
2023/07/18 04:14:00;;;;;;;;;1.00;1.00;;;;;28.49;36.01;101891.94;5097208;27;45516;-85
2023/07/18 04:16:25;;;;;;;;;0.00;0.00;;;;;28.47;35.96;101882.47;5113011;27;45459;-85
2023/07/18 04:18:51;;;;;;;;;1.67;0.67;;;;;28.43;35.80;101879.31;5096248;27;47138;-85
2023/07/18 04:21:16;;;;;;;;;1.00;1.00;;;;;28.41;35.83;101876.00;5096976;27;45439;-85
2023/07/18 04:23:41;;;;;;;;;0.67;0.67;;;;;28.56;35.57;101885.78;5096791;27;45388;-84
2023/07/18 04:26:09;;;;;;;;;1.00;0.00;;;;;28.45;35.96;101868.44;5097561;27;45317;-85
2023/07/18 04:28:38;;;;;;;;;0.00;0.00;;;;;28.56;35.23;101880.41;5096596;27;46182;-85
2023/07/18 04:31:04;;;;;;;;;0.00;0.00;;;;;28.55;35.88;101882.25;5096890;27;45273;-85
2023/07/18 04:33:34;;;;;;;;;0.00;0.00;;;;;28.38;35.30;101863.03;5096981;27;45311;-85
2023/07/18 04:36:00;;;;;;;;;0.00;0.00;;;;;28.57;35.35;101882.09;5096847;27;45465;-85
2023/07/18 04:38:26;;;;;;;;;0.00;0.00;;;;;28.56;35.22;101886.59;5097099;27;47276;-85
2023/07/18 04:40:51;;;;;;;;;1.00;1.00;;;;;28.39;35.54;101857.47;5096247;27;45376;-85
2023/07/18 04:43:16;;;;;;;;;1.00;1.00;;;;;28.51;35.79;101876.50;5096437;27;45373;-85
2023/07/18 04:45:47;;;;;;;;;1.00;1.00;;;;;28.45;35.58;101860.41;5096664;27;45512;-85
2023/07/18 04:48:17;;;;;;;;;0.00;0.00;;;;;28.56;35.88;101878.56;5096189;27;47060;-85
2023/07/18 04:50:44;;;;;;;;;0.00;0.00;;;;;28.56;35.81;101878.56;5096008;27;45445;-85
2023/07/18 04:53:10;;;;;;;;;0.00;0.00;;;;;27.94;35.60;101783.81;5097438;27;45365;-86
2023/07/18 04:55:36;;;;;;;;;0.00;0.00;;;;;28.57;35.42;101874.88;5100087;27;45315;-85
2023/07/18 04:58:07;;;;;;;;;0.00;0.00;;;;;28.27;35.70;101843.00;5099963;27;46510;-84
2023/07/18 05:00:33;;;;;;;;;2.00;0.00;;;;;28.58;35.62;101887.22;5099642;27;45429;-84
2023/07/18 05:03:00;;;;;;;;;0.00;0.00;;;;;28.56;35.84;101875.91;5100234;27;45389;-85
2023/07/18 05:05:26;;;;;;;;;0.00;0.00;;;;;28.60;36.05;101876.31;5100492;27;45510;-85
2023/07/18 05:07:51;;;;;;;;;2.00;0.00;;;;;28.39;35.83;101851.31;5099775;27;45386;-86
2023/07/18 05:10:16;;;;;;;;;2.00;0.00;;;;;28.58;35.61;101876.50;5099590;27;45546;-86
2023/07/18 05:12:43;;;;;;;;;0.00;0.00;;;;;28.45;35.59;101845.16;5100513;27;45408;-85
2023/07/18 05:15:09;;;;;;;;;0.00;0.00;;;;;28.40;35.54;101837.72;5099911;27;45223;-85
2023/07/18 05:17:34;;;;;;;;;0.00;0.00;;;;;28.58;35.92;101865.81;5099732;27;46793;-85
2023/07/18 05:20:00;;;;;;;;;2.00;1.00;;;;;28.31;36.10;101816.69;5099743;27;45874;-85
2023/07/18 05:22:25;;;;;;;;;1.67;1.67;;;;;28.24;35.53;101777.34;5100390;27;45282;-85
2023/07/18 05:24:50;;;;;;;;;1.00;0.33;;;;;28.49;35.46;101825.03;5115155;27;45572;-84
2023/07/18 05:27:16;;;;;;;;;0.00;0.00;;;;;28.59;36.17;101848.72;5099385;27;46219;-85
2023/07/18 05:29:41;;;;;;;;;0.00;0.00;;;;;28.51;35.85;101849.72;5099899;27;45291;-80
2023/07/18 05:32:07;;;;;;;;;0.00;0.00;;;;;28.24;35.60;101813.97;5099935;27;45409;-84
2023/07/18 05:34:33;;;;;;;;;2.00;0.00;;;;;28.51;35.27;101854.25;5099794;27;45208;-85
2023/07/18 05:37:00;;;;;;;;;1.00;1.00;;;;;28.64;35.95;101872.22;5099396;27;45982;-82
2023/07/18 05:39:27;;;;;;;;;0.67;0.67;;;;;28.66;35.52;101866.66;5098852;27;45392;-79
2023/07/18 05:41:53;;;;;;;;;0.00;0.00;;;;;28.61;35.81;101859.22;5099225;27;45293;-84
2023/07/18 05:44:19;;;;;;;;;5.00;1.67;;;;;28.50;35.07;101844.56;5097812;27;45506;-81
2023/07/18 05:46:44;;;;;;;;;1.67;1.67;;;;;28.48;33.79;101878.75;5097448;27;47488;-81
2023/07/18 05:49:09;;;;;;;;;23.67;12.00;;;;;28.20;33.94;101877.78;5096913;27;45486;-77
2023/07/18 05:51:35;;;;;;;;;9.67;5.00;;;;;27.80;33.41;101856.94;5094161;27;45412;-75
2023/07/18 05:54:00;;;;;;;;;4.33;2.33;;;;;27.54;34.16;101856.53;5098511;27;45485;-75
2023/07/18 05:56:26;;;;;;;;;2.00;2.00;;;;;27.11;34.19;101847.50;5098268;27;46782;-77
2023/07/18 05:58:51;;;;;;;;;1.33;1.33;;;;;27.16;34.38;101898.56;5098546;27;45354;-82
2023/07/18 06:01:16;;;;;;;;;4.33;2.00;;;;;26.86;34.41;101890.59;5099575;27;45432;-83
2023/07/18 06:03:42;;;;;;;;;2.00;1.00;;;;;26.78;35.17;101909.41;5094047;27;45784;-82
2023/07/18 06:06:07;;;;;;;;;1.33;1.00;;;;;26.46;35.32;101882.94;5097301;27;45584;-80
2023/07/18 06:08:33;;;;;;;;;3.00;3.00;;;;;26.01;35.81;101822.38;5118936;27;46189;-83
2023/07/18 06:10:58;;;;;;;;;3.33;1.33;;;;;26.37;35.42;101893.66;5118729;27;45400;-83
2023/07/18 06:13:24;;;;;;;;;2.00;2.00;;;;;25.86;35.84;101833.88;5118416;27;45435;-83
2023/07/18 06:15:50;;;;;;;;;2.67;2.67;;;;;26.00;35.95;101885.53;5098334;27;45998;-82
2023/07/18 06:18:16;;;;;;;;;2.00;2.00;;;;;26.06;36.13;101895.50;5113991;27;45486;-82
2023/07/18 06:20:41;;;;;;;;;2.00;1.33;;;;;26.01;35.94;101897.03;5108525;27;45912;-83
2023/07/18 06:23:07;;;;;;;;;3.00;1.00;;;;;25.84;36.22;101886.56;5109936;27;45330;-81
2023/07/18 06:25:32;;;;;;;;;2.33;1.00;;;;;25.79;36.15;101878.28;5108280;27;46237;-81
2023/07/18 06:27:58;;;;;;;;;1.00;1.00;;;;;25.76;36.17;101886.63;5105266;27;45569;-82
2023/07/18 06:30:24;;;;;;;;;2.67;2.00;;;;;24.88;35.94;101755.44;5112154;27;45617;-80
2023/07/18 06:32:49;;;;;;;;;2.00;2.00;;;;;25.64;36.13;101887.00;5104701;27;45420;-79
2023/07/18 06:35:15;;;;;;;;;1.00;1.00;;;;;25.46;36.61;101858.03;5110488;27;46630;-82
2023/07/18 06:37:41;;;;;;;;;2.00;2.00;;;;;25.57;36.50;101876.25;5104825;27;45243;-83
2023/07/18 06:40:10;;;;;;;;;0.67;0.67;;;;;25.92;36.17;101910.44;5094468;27;45461;-82
2023/07/18 06:42:36;;;;;;;;;3.00;1.00;;;;;25.18;36.59;101771.53;5100367;27;45528;-83
2023/07/18 06:45:03;;;;;;;;;1.00;1.00;;;;;25.89;35.81;101852.19;5102646;27;46198;-83
2023/07/18 06:47:29;;;;;;;;;1.00;1.00;;;;;25.75;36.02;101816.50;5094329;27;45511;-83
2023/07/18 06:49:55;;;;;;;;;1.00;1.00;;;;;26.51;36.21;101886.72;5094512;27;45291;-83
2023/07/18 06:52:20;;;;;;;;;1.33;1.00;;;;;25.83;36.00;101732.94;5110583;27;45541;-82
2023/07/18 06:54:46;;;;;;;;;3.33;2.33;;;;;26.74;35.59;101827.00;5093894;27;47381;-82
2023/07/18 06:57:14;;;;;;;;;0.33;0.33;;;;;26.79;36.06;101813.09;5096073;27;45341;-82
2023/07/18 06:59:40;;;;;;;;;1.00;1.00;;;;;26.03;36.04;101665.72;5115076;27;45561;-83
2023/07/18 07:02:05;;;;;;;;;1.33;1.00;;;;;26.51;35.85;101731.09;5106983;27;45348;-83
2023/07/18 07:04:31;;;;;;;;;3.00;2.00;;;;;27.10;35.46;101823.66;5114513;27;45367;-83
2023/07/18 07:06:56;;;;;;;;;1.00;1.00;;;;;27.06;35.78;101813.34;5109091;27;45527;-83
2023/07/18 07:09:24;;;;;;;;;1.00;1.00;;;;;27.24;35.80;101829.97;5107165;27;45471;-83
2023/07/18 07:11:49;;;;;;;;;3.00;1.00;;;;;26.94;34.98;101758.78;5114143;27;45645;-83
2023/07/18 07:14:14;;;;;;;;;1.00;1.00;;;;;26.36;35.57;101653.75;5126650;27;45976;-83
2023/07/18 07:16:40;;;;;;;;;2.67;1.00;;;;;26.94;35.62;101713.41;5111417;27;45548;-83
2023/07/18 07:19:06;;;;;;;;;2.00;1.00;;;;;27.42;35.08;101767.22;5097855;27;45302;-83
2023/07/18 07:21:31;;;;;;;;;1.67;1.67;;;;;27.29;35.69;101731.38;5097989;27;45522;-83
2023/07/18 07:23:57;;;;;;;;;2.00;1.00;;;;;27.52;35.09;101759.69;5106458;27;46300;-83
2023/07/18 07:26:22;;;;;;;;;1.33;1.00;;;;;27.25;35.64;101716.75;5100906;27;45696;-83
2023/07/18 07:28:47;;;;;;;;;2.00;1.00;;;;;27.46;35.67;101731.88;5110395;27;45292;-83
2023/07/18 07:31:14;;;;;;;;;1.00;1.00;;;;;27.16;35.52;101658.16;5102609;27;45630;-83
2023/07/18 07:33:40;;;;;;;;;3.00;1.33;;;;;27.74;35.71;101717.66;5104188;27;45497;-82
2023/07/18 07:36:05;;;;;;;;;0.67;0.67;;;;;27.76;34.85;101730.84;5096594;27;46565;-83
2023/07/18 07:38:30;;;;;;;;;2.00;2.00;;;;;27.85;35.38;101761.75;5106304;27;45394;-84
2023/07/18 07:40:56;;;;;;;;;1.67;1.67;;;;;27.72;35.09;101722.38;5107170;27;45489;-83
2023/07/18 07:43:21;;;;;;;;;1.00;1.00;;;;;27.94;35.12;101741.03;5105638;27;47318;-83
2023/07/18 07:45:46;;;;;;;;;1.00;1.00;;;;;27.91;34.82;101749.44;5125312;27;45415;-83
2023/07/18 07:48:12;;;;;;;;;1.67;1.00;;;;;27.76;34.91;101752.22;5112046;27;45290;-83
2023/07/18 07:50:37;;;;;;;;;1.00;1.00;;;;;27.71;34.81;101717.22;5093378;27;45406;-83
2023/07/18 07:53:03;;;;;;;;;1.00;1.00;;;;;27.89;35.08;101738.13;5110705;27;48028;-82
2023/07/18 07:55:28;;;;;;;;;1.00;1.00;;;;;28.17;35.42;101766.63;5098068;27;45412;-83
2023/07/18 07:57:53;;;;;;;;;0.00;0.00;;;;;27.47;34.31;101649.88;5110390;27;45558;-83
2023/07/18 08:00:19;;;;;;;;;2.00;1.00;;;;;28.36;34.82;101784.81;5093170;27;45737;-83
2023/07/18 08:02:45;;;;;;;;;1.00;1.00;;;;;27.78;34.98;101683.31;5107922;27;45969;-83
2023/07/18 08:05:10;;;;;;;;;5.00;2.00;;;;;28.02;34.97;101709.78;5096369;27;45351;-82
2023/07/18 08:07:36;;;;;;;;;2.00;0.00;;;;;28.57;34.88;101786.53;5104015;27;45616;-83
2023/07/18 08:10:02;;;;;;;;;1.00;1.00;;;;;28.63;34.86;101769.66;5103046;27;45386;-84
2023/07/18 08:12:28;;;;;;;;;1.00;1.00;;;;;28.42;34.46;101726.97;5093236;27;45467;-84
2023/07/18 08:14:53;;;;;;;;;1.67;1.00;;;;;28.75;34.58;101782.44;5104916;27;45460;-83
2023/07/18 08:17:19;;;;;;;;;4.00;1.00;;;;;28.24;34.63;101715.81;5106444;27;45496;-80
2023/07/18 08:19:44;;;;;;;;;2.00;2.00;;;;;28.84;34.50;101783.91;5103888;27;45485;-84
2023/07/18 08:22:10;;;;;;;;;1.00;1.00;;;;;28.32;34.66;101681.84;5094916;27;45832;-88
2023/07/18 08:24:36;;;;;;;;;2.00;1.33;;;;;28.87;34.41;101760.41;5091314;27;45380;-78
2023/07/18 08:27:01;;;;;;;;;1.00;1.00;;;;;28.84;34.98;101764.31;5097354;27;45620;-79
2023/07/18 08:29:30;;;;;;;;;1.00;1.00;;;;;28.66;34.80;101722.06;5100039;27;45887;-79
2023/07/18 08:31:55;;;;;;;;;2.33;1.33;;;;;28.34;35.07;101671.78;5108585;27;46538;-79
2023/07/18 08:34:20;;;;;;;;;1.67;1.67;;;;;28.27;35.17;101658.38;5108251;27;45884;-79
2023/07/18 08:36:47;;;;;;;;;0.00;0.00;;;;;28.50;34.82;101714.25;5101060;27;45660;-79
2023/07/18 08:39:13;;;;;;;;;3.67;2.00;;;;;28.50;34.90;101692.81;5108721;27;45516;-78
2023/07/18 08:41:44;;;;;;;;;1.00;1.00;;;;;29.13;34.51;101783.72;5098133;27;46395;-79
2023/07/18 08:44:13;;;;;;;;;1.00;1.00;;;;;29.17;34.87;101784.16;5095131;27;45797;-78
2023/07/18 08:46:42;;;;;;;;;1.33;0.33;;;;;29.12;34.89;101779.41;5095881;27;45493;-79
2023/07/18 08:49:10;;;;;;;;;1.00;1.00;;;;;29.01;34.86;101751.38;5098942;27;45490;-79
2023/07/18 08:51:36;;;;;;;;;3.00;1.00;;;;;29.20;34.38;101766.84;5100567;27;46550;-78
2023/07/18 08:54:01;;;;;;;;;1.33;0.33;;;;;29.00;34.68;101711.38;5105986;27;45385;-79
2023/07/18 08:56:27;;;;;;;;;3.33;2.00;;;;;28.96;34.14;101695.69;5104405;27;45387;-79
2023/07/18 08:58:55;;;;;;;;;2.00;1.00;;;;;29.27;34.89;101748.91;5097751;27;45303;-79
2023/07/18 09:01:21;;;;;;;;;0.00;0.00;;;;;28.95;33.90;101706.63;5096783;27;46571;-79
2023/07/18 09:03:46;;;;;;;;;2.00;1.00;;;;;28.70;34.08;101669.78;5105207;27;45855;-79
2023/07/18 09:06:19;;;;;;;;;0.00;0.00;;;;;29.38;34.38;101753.59;5099053;27;45357;-79
2023/07/18 09:08:44;;;;;;;;;3.00;2.33;;;;;29.21;34.09;101705.00;5096791;27;45361;-79
2023/07/18 09:11:12;;;;;;;;;0.00;0.00;;;;;28.95;34.04;101651.22;5091284;27;47370;-79
2023/07/18 09:13:39;;;;;;;;;1.00;1.00;;;;;29.45;33.78;101726.81;5100628;27;45498;-78
2023/07/18 09:16:13;;;;;;;;;0.67;0.67;;;;;29.10;34.09;101660.91;5106174;27;45341;-79
2023/07/18 09:18:42;;;;;;;;;2.33;0.00;;;;;29.04;33.58;101654.47;5112424;27;45491;-77
2023/07/18 09:21:11;;;;;;;;;1.00;1.00;;;;;29.51;33.85;101715.22;5102461;27;47179;-79
2023/07/18 09:23:41;;;;;;;;;0.33;0.33;;;;;29.52;33.85;101711.50;5101722;27;45472;-79
2023/07/18 09:26:10;;;;;;;;;0.67;0.67;;;;;29.06;33.73;101647.09;5099890;27;46352;-79
2023/07/18 09:28:36;;;;;;;;;0.00;0.00;;;;;29.13;33.47;101652.44;5103655;27;46006;-79
2023/07/18 09:31:02;;;;;;;;;3.00;1.67;;;;;29.31;33.91;101676.94;5094189;27;45566;-78
2023/07/18 09:33:28;;;;;;;;;2.00;2.00;;;;;28.91;33.68;101617.03;5097347;27;45399;-80
2023/07/18 09:35:58;;;;;;;;;1.00;1.00;;;;;28.89;33.79;101611.88;5099889;27;45377;-79
2023/07/18 09:38:23;;;;;;;;;1.00;1.00;;;;;29.59;33.72;101719.53;5104240;27;45563;-79
2023/07/18 09:40:49;;;;;;;;;1.00;1.00;;;;;29.09;33.80;101637.84;5093139;27;47394;-79
2023/07/18 09:43:16;;;;;;;;;1.67;1.00;;;;;29.61;33.84;101722.81;5095917;27;45478;-79
2023/07/18 09:45:43;;;;;;;;;1.00;1.00;;;;;29.62;33.72;101694.16;5109513;27;45500;-79
2023/07/18 09:48:10;;;;;;;;;2.67;2.00;;;;;29.63;33.45;101698.50;5108437;27;45503;-79
2023/07/18 09:50:40;;;;;;;;;1.00;1.00;;;;;29.63;33.43;101703.84;5098242;27;46496;-80
2023/07/18 09:53:10;;;;;;;;;1.00;1.00;;;;;29.64;33.37;101708.16;5097104;27;45528;-79
2023/07/18 09:55:38;;;;;;;;;1.33;0.33;;;;;29.43;33.45;101669.06;5095210;27;45484;-83
2023/07/18 09:58:05;;;;;;;;;3.00;0.67;;;;;29.06;33.48;101603.41;5106815;27;45559;-85
2023/07/18 10:00:32;;;;;;;;;0.00;0.00;;;;;29.65;33.32;101696.41;5114898;27;45621;-85
2023/07/18 10:02:58;;;;;;;;;1.00;1.00;;;;;29.16;33.25;101606.50;5092332;27;45925;-84
2023/07/18 10:05:24;;;;;;;;;1.00;0.67;;;;;29.38;33.16;101626.81;5112022;27;45384;-84
2023/07/18 10:07:50;;;;;;;;;0.33;0.33;;;;;29.48;33.79;101642.47;5107752;27;45316;-85
2023/07/18 10:10:16;;;;;;;;;1.00;1.00;;;;;29.59;33.37;101659.72;5115438;27;46071;-84
2023/07/18 10:12:53;;;;;;;;;1.00;1.00;;;;;29.67;33.29;101675.56;5114209;27;45437;-84
2023/07/18 10:15:19;;;;;;;;;3.00;1.33;;;;;29.68;33.30;101671.88;5106582;27;45383;-84
2023/07/18 10:17:44;;;;;;;;;2.00;1.00;;;;;29.39;33.27;101626.59;5104620;27;45354;-84
2023/07/18 10:20:18;;;;;;;;;1.00;1.00;;;;;29.69;32.86;101672.69;5104702;27;45389;-84
2023/07/18 10:22:58;;;;;;;;;0.33;0.33;;;;;29.65;33.23;101647.31;5099065;27;45530;-84
2023/07/18 10:25:28;;;;;;;;;2.67;1.00;;;;;29.32;33.29;101595.50;5104447;27;45372;-84
2023/07/18 10:27:54;;;;;;;;;0.00;0.00;;;;;29.42;33.34;101611.97;5098633;27;45319;-84
2023/07/18 10:30:20;;;;;;;;;1.33;0.00;;;;;29.55;33.57;101634.38;5114594;27;45455;-84
2023/07/18 10:32:54;;;;;;;;;0.67;0.67;;;;;29.69;33.25;101649.34;5103844;27;45336;-79
2023/07/18 10:35:21;;;;;;;;;2.00;2.00;;;;;29.54;30.96;101635.41;5105014;27;45374;-86
2023/07/18 10:38:02;;;;;;;;;0.33;0.33;;;;;29.43;30.61;101645.78;5103834;27;45434;-86
2023/07/18 10:40:39;;;;;;;;;1.00;1.00;;;;;29.31;30.76;101639.41;5114904;27;45378;-74
2023/07/18 10:43:10;;;;;;;;;1.00;1.00;;;;;29.13;30.67;101619.47;5097348;27;45612;-73
2023/07/18 10:45:41;;;;;;;;;2.67;2.33;;;;;29.12;31.20;101628.56;5089150;27;45503;-73
2023/07/18 10:48:24;;;;;;;;;1.33;1.33;;;;;29.07;30.82;101618.41;5093049;27;45457;-73
2023/07/18 10:50:49;;;;;;;;;1.00;1.00;;;;;29.05;30.60;101623.16;5091775;27;47180;-73
2023/07/18 10:53:18;;;;;;;;;1.00;1.00;;;;;29.03;29.99;101630.59;5093203;27;45324;-73
2023/07/18 10:55:45;;;;;;;;;1.00;1.00;;;;;28.75;30.03;101581.63;5092534;27;45859;-73
2023/07/18 10:58:16;;;;;;;;;1.00;1.00;;;;;28.90;29.72;101618.06;5092702;27;45423;-73
2023/07/18 11:00:42;;;;;;;;;1.00;1.00;;;;;28.72;30.41;101590.91;5092176;27;45665;-73
2023/07/18 11:03:18;;;;;;;;;0.33;0.33;;;;;28.88;30.52;101617.44;5093003;27;45549;-73
2023/07/18 11:05:49;;;;;;;;;1.00;1.00;;;;;28.77;30.79;101600.16;5092636;27;45558;-73
2023/07/18 11:08:25;;;;;;;;;3.67;1.67;;;;;28.83;30.06;101610.84;5092704;27;45303;-73
2023/07/18 11:10:59;;;;;;;;;3.67;2.00;;;;;28.81;30.17;101612.91;5092579;27;46466;-74
2023/07/18 11:13:33;;;;;;;;;1.33;1.33;;;;;28.56;30.14;101572.59;5092658;27;45584;-74
2023/07/18 11:16:04;;;;;;;;;1.00;1.00;;;;;28.63;30.54;101589.44;5089701;27;45397;-74
2023/07/18 11:18:34;;;;;;;;;2.00;2.00;;;;;28.64;30.30;101585.75;5092822;27;45487;-75
2023/07/18 11:21:03;;;;;;;;;1.00;1.00;;;;;28.73;30.55;101594.38;5092204;27;47004;-75